sensor_id;sensor_type;location;lat;lon;timestamp;pressure;altitude;pressure_sealevel;temperature;humidity
69980;BME280;57318;56.232;43.944;2023-08-01T00:01:02;98518.09;;;16.88;74.19
69980;BME280;57318;56.232;43.944;2023-08-01T00:03:28;98520.59;;;16.90;74.22
69980;BME280;57318;56.232;43.944;2023-08-01T00:05:54;98516.44;;;16.87;74.27
69980;BME280;57318;56.232;43.944;2023-08-01T00:08:21;98516.63;;;16.86;74.25
69980;BME280;57318;56.232;43.944;2023-08-01T00:10:46;98519.44;;;16.84;74.36
69980;BME280;57318;56.232;43.944;2023-08-01T00:13:12;98520.81;;;16.80;74.48
69980;BME280;57318;56.232;43.944;2023-08-01T00:15:38;98515.84;;;16.77;74.73
69980;BME280;57318;56.232;43.944;2023-08-01T00:18:04;98520.75;;;16.73;74.77
69980;BME280;57318;56.232;43.944;2023-08-01T00:20:30;98527.28;;;16.71;75.03
69980;BME280;57318;56.232;43.944;2023-08-01T00:22:55;98524.97;;;16.68;75.10
69980;BME280;57318;56.232;43.944;2023-08-01T00:25:21;98527.41;;;16.63;75.33
69980;BME280;57318;56.232;43.944;2023-08-01T00:27:47;98527.75;;;16.59;75.53
69980;BME280;57318;56.232;43.944;2023-08-01T00:30:13;98527.31;;;16.56;75.86
69980;BME280;57318;56.232;43.944;2023-08-01T00:32:38;98533.84;;;16.53;76.27
69980;BME280;57318;56.232;43.944;2023-08-01T00:35:05;98528.69;;;16.52;76.86
69980;BME280;57318;56.232;43.944;2023-08-01T00:37:31;98533.59;;;16.48;76.93
69980;BME280;57318;56.232;43.944;2023-08-01T00:39:57;98545.50;;;16.46;76.92
69980;BME280;57318;56.232;43.944;2023-08-01T00:42:23;98539.69;;;16.42;77.15
69980;BME280;57318;56.232;43.944;2023-08-01T00:44:49;98542.72;;;16.39;77.81
69980;BME280;57318;56.232;43.944;2023-08-01T00:47:15;98532.34;;;16.36;78.36
69980;BME280;57318;56.232;43.944;2023-08-01T00:49:43;98528.03;;;16.35;78.39
69980;BME280;57318;56.232;43.944;2023-08-01T00:52:09;98537.44;;;16.31;78.83
69980;BME280;57318;56.232;43.944;2023-08-01T00:54:36;98536.81;;;16.29;79.10
69980;BME280;57318;56.232;43.944;2023-08-01T00:57:05;98543.34;;;16.26;79.22
69980;BME280;57318;56.232;43.944;2023-08-01T00:59:32;98546.38;;;16.23;79.67
69980;BME280;57318;56.232;43.944;2023-08-01T01:01:58;98553.78;;;16.21;80.00
69980;BME280;57318;56.232;43.944;2023-08-01T01:04:26;98546.75;;;16.20;80.26
69980;BME280;57318;56.232;43.944;2023-08-01T01:07:03;98555.63;;;16.20;80.22
69980;BME280;57318;56.232;43.944;2023-08-01T01:09:31;98549.78;;;16.17;80.26
69980;BME280;57318;56.232;43.944;2023-08-01T01:12:00;98556.16;;;16.16;80.73
69980;BME280;57318;56.232;43.944;2023-08-01T01:14:29;98554.50;;;16.15;80.71
69980;BME280;57318;56.232;43.944;2023-08-01T01:16:55;98557.38;;;16.13;80.86
69980;BME280;57318;56.232;43.944;2023-08-01T01:19:21;98558.00;;;16.15;81.10
69980;BME280;57318;56.232;43.944;2023-08-01T01:21:47;98556.34;;;16.14;81.39
69980;BME280;57318;56.232;43.944;2023-08-01T01:24:14;98546.28;;;16.16;81.57
69980;BME280;57318;56.232;43.944;2023-08-01T01:26:42;98551.66;;;16.16;81.30
69980;BME280;57318;56.232;43.944;2023-08-01T01:29:09;98551.66;;;16.16;81.58
69980;BME280;57318;56.232;43.944;2023-08-01T01:31:36;98557.28;;;16.21;81.36
69980;BME280;57318;56.232;43.944;2023-08-01T01:34:03;98557.09;;;16.23;81.25
69980;BME280;57318;56.232;43.944;2023-08-01T01:36:29;98556.94;;;16.24;81.18
69980;BME280;57318;56.232;43.944;2023-08-01T01:38:55;98556.56;;;16.28;80.95
69980;BME280;57318;56.232;43.944;2023-08-01T01:41:21;98561.75;;;16.29;80.77
69980;BME280;57318;56.232;43.944;2023-08-01T01:43:47;98563.25;;;16.32;80.77
69980;BME280;57318;56.232;43.944;2023-08-01T01:46:13;98565.75;;;16.33;80.55
69980;BME280;57318;56.232;43.944;2023-08-01T01:48:39;98569.25;;;16.34;80.51
69980;BME280;57318;56.232;43.944;2023-08-01T01:51:04;98570.94;;;16.35;80.59
69980;BME280;57318;56.232;43.944;2023-08-01T01:53:30;98573.59;;;16.35;80.58
69980;BME280;57318;56.232;43.944;2023-08-01T01:55:56;98580.78;;;16.34;80.33
69980;BME280;57318;56.232;43.944;2023-08-01T01:58:21;98575.78;;;16.31;80.39
69980;BME280;57318;56.232;43.944;2023-08-01T02:00:48;98577.47;;;16.32;80.44
69980;BME280;57318;56.232;43.944;2023-08-01T02:03:14;98589.03;;;16.33;80.33
69980;BME280;57318;56.232;43.944;2023-08-01T02:05:40;98581.16;;;16.31;80.48
69980;BME280;57318;56.232;43.944;2023-08-01T02:08:06;98583.66;;;16.33;80.43
69980;BME280;57318;56.232;43.944;2023-08-01T02:10:32;98580.16;;;16.32;80.25
69980;BME280;57318;56.232;43.944;2023-08-01T02:12:58;98583.47;;;16.34;80.05
69980;BME280;57318;56.232;43.944;2023-08-01T02:15:24;98586.81;;;16.36;79.89
69980;BME280;57318;56.232;43.944;2023-08-01T02:17:50;98584.63;;;16.40;79.85
69980;BME280;57318;56.232;43.944;2023-08-01T02:20:16;98591.63;;;16.41;79.56
69980;BME280;57318;56.232;43.944;2023-08-01T02:22:42;98581.38;;;16.45;79.30
69980;BME280;57318;56.232;43.944;2023-08-01T02:25:11;98582.22;;;16.45;79.58
69980;BME280;57318;56.232;43.944;2023-08-01T02:27:37;98585.53;;;16.47;79.30
69980;BME280;57318;56.232;43.944;2023-08-01T02:30:03;98583.53;;;16.49;79.20
69980;BME280;57318;56.232;43.944;2023-08-01T02:32:32;98585.19;;;16.50;79.07
69980;BME280;57318;56.232;43.944;2023-08-01T02:34:57;98584.81;;;16.53;79.08
69980;BME280;57318;56.232;43.944;2023-08-01T02:37:23;98589.81;;;16.56;78.76
69980;BME280;57318;56.232;43.944;2023-08-01T02:39:49;98602.69;;;16.61;78.70
69980;BME280;57318;56.232;43.944;2023-08-01T02:42:15;98601.50;;;16.64;78.66
69980;BME280;57318;56.232;43.944;2023-08-01T02:44:40;98601.31;;;16.65;78.72
69980;BME280;57318;56.232;43.944;2023-08-01T02:47:06;98595.75;;;16.67;78.93
69980;BME280;57318;56.232;43.944;2023-08-01T02:49:32;98588.72;;;16.66;79.32
69980;BME280;57318;56.232;43.944;2023-08-01T02:51:58;98591.22;;;16.67;78.92
69980;BME280;57318;56.232;43.944;2023-08-01T02:54:24;98597.22;;;16.69;78.73
69980;BME280;57318;56.232;43.944;2023-08-01T02:56:50;98591.69;;;16.71;78.69
69980;BME280;57318;56.232;43.944;2023-08-01T02:59:16;98604.53;;;16.75;78.58
69980;BME280;57318;56.232;43.944;2023-08-01T03:01:44;98602.53;;;16.77;78.74
69980;BME280;57318;56.232;43.944;2023-08-01T03:04:10;98593.44;;;16.78;78.94
69980;BME280;57318;56.232;43.944;2023-08-01T03:06:39;98592.25;;;16.81;78.90
69980;BME280;57318;56.232;43.944;2023-08-01T03:09:04;98596.25;;;16.85;79.02
69980;BME280;57318;56.232;43.944;2023-08-01T03:11:35;98596.91;;;16.87;78.58
69980;BME280;57318;56.232;43.944;2023-08-01T03:14:02;98596.56;;;16.90;78.66
69980;BME280;57318;56.232;43.944;2023-08-01T03:16:30;98597.19;;;16.92;78.49
69980;BME280;57318;56.232;43.944;2023-08-01T03:18:56;98600.50;;;16.94;78.49
69980;BME280;57318;56.232;43.944;2023-08-01T03:21:22;98603.00;;;16.96;78.50
69980;BME280;57318;56.232;43.944;2023-08-01T03:23:48;98602.81;;;16.98;78.31
69980;BME280;57318;56.232;43.944;2023-08-01T03:26:14;98608.50;;;17.03;78.29
69980;BME280;57318;56.232;43.944;2023-08-01T03:28:40;98600.91;;;17.06;78.31
69980;BME280;57318;56.232;43.944;2023-08-01T03:31:06;98609.41;;;17.10;78.05
69980;BME280;57318;56.232;43.944;2023-08-01T03:33:32;98610.53;;;17.16;78.12
69980;BME280;57318;56.232;43.944;2023-08-01T03:35:59;98615.34;;;17.20;77.87
69980;BME280;57318;56.232;43.944;2023-08-01T03:38:24;98612.28;;;17.23;77.76
69980;BME280;57318;56.232;43.944;2023-08-01T03:40:50;98623.94;;;17.30;77.33
69980;BME280;57318;56.232;43.944;2023-08-01T03:43:16;98623.19;;;17.37;77.38
69980;BME280;57318;56.232;43.944;2023-08-01T03:45:42;98625.13;;;17.43;77.14
69980;BME280;57318;56.232;43.944;2023-08-01T03:48:07;98623.56;;;17.48;76.88
69980;BME280;57318;56.232;43.944;2023-08-01T03:50:33;98636.06;;;17.56;76.66
69980;BME280;57318;56.232;43.944;2023-08-01T03:52:59;98631.75;;;17.62;76.40
69980;BME280;57318;56.232;43.944;2023-08-01T03:55:25;98637.25;;;17.68;76.32
69980;BME280;57318;56.232;43.944;2023-08-01T03:57:50;98634.00;;;17.73;75.92
69980;BME280;57318;56.232;43.944;2023-08-01T04:00:16;98633.38;;;17.78;75.73
69980;BME280;57318;56.232;43.944;2023-08-01T04:02:44;98633.31;;;17.86;75.60
69980;BME280;57318;56.232;43.944;2023-08-01T04:05:10;98636.09;;;17.93;75.22
69980;BME280;57318;56.232;43.944;2023-08-01T04:07:38;98637.81;;;18.00;74.89
69980;BME280;57318;56.232;43.944;2023-08-01T04:10:05;98640.75;;;18.06;74.36
69980;BME280;57318;56.232;43.944;2023-08-01T04:12:32;98648.69;;;18.14;73.92
69980;BME280;57318;56.232;43.944;2023-08-01T04:14:58;98651.09;;;18.24;73.80
69980;BME280;57318;56.232;43.944;2023-08-01T04:17:24;98650.97;;;18.32;73.42
69980;BME280;57318;56.232;43.944;2023-08-01T04:19:50;98644.63;;;18.39;72.79
69980;BME280;57318;56.232;43.944;2023-08-01T04:22:15;98651.06;;;18.45;71.85
69980;BME280;57318;56.232;43.944;2023-08-01T04:24:41;98650.97;;;18.53;71.37
69980;BME280;57318;56.232;43.944;2023-08-01T04:27:07;98644.59;;;18.61;71.43
69980;BME280;57318;56.232;43.944;2023-08-01T04:29:34;98655.03;;;18.71;71.32
69980;BME280;57318;56.232;43.944;2023-08-01T04:32:00;98647.00;;;18.78;70.91
69980;BME280;57318;56.232;43.944;2023-08-01T04:34:25;98650.41;;;18.86;70.77
69980;BME280;57318;56.232;43.944;2023-08-01T04:36:51;98652.31;;;18.92;70.47
69980;BME280;57318;56.232;43.944;2023-08-01T04:39:17;98655.69;;;19.01;70.00
69980;BME280;57318;56.232;43.944;2023-08-01T04:41:43;98650.34;;;19.08;69.64
69980;BME280;57318;56.232;43.944;2023-08-01T04:44:09;98652.06;;;19.16;69.08
69980;BME280;57318;56.232;43.944;2023-08-01T04:46:34;98655.44;;;19.24;68.50
69980;BME280;57318;56.232;43.944;2023-08-01T04:49:00;98646.38;;;19.32;68.38
69980;BME280;57318;56.232;43.944;2023-08-01T04:51:26;98650.97;;;19.38;67.74
69980;BME280;57318;56.232;43.944;2023-08-01T04:53:51;98644.34;;;19.47;67.49
69980;BME280;57318;56.232;43.944;2023-08-01T04:56:17;98647.53;;;19.58;67.67
69980;BME280;57318;56.232;43.944;2023-08-01T04:58:43;98649.84;;;19.68;67.09
69980;BME280;57318;56.232;43.944;2023-08-01T05:01:09;98649.47;;;19.77;66.55
69980;BME280;57318;56.232;43.944;2023-08-01T05:03:35;98651.81;;;19.87;65.95
69980;BME280;57318;56.232;43.944;2023-08-01T05:06:00;98649.75;;;19.96;65.60
69980;BME280;57318;56.232;43.944;2023-08-01T05:08:26;98651.66;;;20.02;64.66
69980;BME280;57318;56.232;43.944;2023-08-01T05:10:52;98654.34;;;20.09;64.21
69980;BME280;57318;56.232;43.944;2023-08-01T05:13:18;98655.63;;;20.13;63.94
69980;BME280;57318;56.232;43.944;2023-08-01T05:15:45;98659.59;;;20.24;63.59
69980;BME280;57318;56.232;43.944;2023-08-01T05:18:17;98661.69;;;20.35;63.13
69980;BME280;57318;56.232;43.944;2023-08-01T05:20:43;98649.03;;;20.42;62.73
69980;BME280;57318;56.232;43.944;2023-08-01T05:23:09;98656.72;;;20.52;62.62
69980;BME280;57318;56.232;43.944;2023-08-01T05:25:35;98660.66;;;20.63;62.53
69980;BME280;57318;56.232;43.944;2023-08-01T05:28:01;98659.88;;;20.69;61.71
69980;BME280;57318;56.232;43.944;2023-08-01T05:30:26;98667.75;;;20.77;61.21
69980;BME280;57318;56.232;43.944;2023-08-01T05:32:52;98671.06;;;20.86;61.00
69980;BME280;57318;56.232;43.944;2023-08-01T05:35:19;98659.00;;;20.95;60.49
69980;BME280;57318;56.232;43.944;2023-08-01T05:37:46;98664.00;;;21.05;60.54
69980;BME280;57318;56.232;43.944;2023-08-01T05:40:12;98664.78;;;21.19;60.63
69980;BME280;57318;56.232;43.944;2023-08-01T05:42:38;98673.09;;;21.31;60.29
69980;BME280;57318;56.232;43.944;2023-08-01T05:45:04;98676.81;;;21.43;59.70
69980;BME280;57318;56.232;43.944;2023-08-01T05:47:31;98673.47;;;21.54;58.86
69980;BME280;57318;56.232;43.944;2023-08-01T05:49:56;98670.16;;;21.59;58.75
69980;BME280;57318;56.232;43.944;2023-08-01T05:52:24;98673.63;;;21.66;58.81
69980;BME280;57318;56.232;43.944;2023-08-01T05:54:50;98675.06;;;21.75;58.57
69980;BME280;57318;56.232;43.944;2023-08-01T05:57:16;98670.25;;;21.84;58.18
69980;BME280;57318;56.232;43.944;2023-08-01T05:59:42;98675.84;;;21.89;57.35
69980;BME280;57318;56.232;43.944;2023-08-01T06:02:07;98676.22;;;21.93;57.20
69980;BME280;57318;56.232;43.944;2023-08-01T06:04:33;98673.28;;;22.01;56.91
69980;BME280;57318;56.232;43.944;2023-08-01T06:06:59;98682.19;;;22.08;56.50
69980;BME280;57318;56.232;43.944;2023-08-01T06:09:25;98682.78;;;22.17;56.13
69980;BME280;57318;56.232;43.944;2023-08-01T06:11:51;98678.78;;;22.26;55.74
69980;BME280;57318;56.232;43.944;2023-08-01T06:14:17;98669.81;;;22.32;56.00
69980;BME280;57318;56.232;43.944;2023-08-01T06:16:43;98680.16;;;22.42;56.02
69980;BME280;57318;56.232;43.944;2023-08-01T06:19:08;98680.06;;;22.56;55.53
69980;BME280;57318;56.232;43.944;2023-08-01T06:21:34;98677.31;;;22.62;55.59
69980;BME280;57318;56.232;43.944;2023-08-01T06:24:00;98667.88;;;22.72;55.21
69980;BME280;57318;56.232;43.944;2023-08-01T06:26:26;98676.31;;;22.82;54.86
69980;BME280;57318;56.232;43.944;2023-08-01T06:28:51;98678.16;;;22.88;54.58
69980;BME280;57318;56.232;43.944;2023-08-01T06:31:21;98672.88;;;22.93;54.62
69980;BME280;57318;56.232;43.944;2023-08-01T06:33:47;98675.16;;;22.96;54.41
69980;BME280;57318;56.232;43.944;2023-08-01T06:36:13;98679.84;;;23.07;54.75
69980;BME280;57318;56.232;43.944;2023-08-01T06:38:39;98682.41;;;23.65;53.49
69980;BME280;57318;56.232;43.944;2023-08-01T06:41:05;98687.75;;;24.81;49.70
69980;BME280;57318;56.232;43.944;2023-08-01T06:43:30;98679.56;;;26.45;46.33
69980;BME280;57318;56.232;43.944;2023-08-01T06:45:56;98687.22;;;28.38;42.34
69980;BME280;57318;56.232;43.944;2023-08-01T06:48:22;98688.50;;;30.39;38.22
69980;BME280;57318;56.232;43.944;2023-08-01T06:50:48;98691.38;;;31.92;34.93
69980;BME280;57318;56.232;43.944;2023-08-01T06:53:13;98696.28;;;33.48;32.37
69980;BME280;57318;56.232;43.944;2023-08-01T06:55:39;98689.16;;;34.91;30.18
69980;BME280;57318;56.232;43.944;2023-08-01T06:58:05;98698.53;;;36.34;28.66
69980;BME280;57318;56.232;43.944;2023-08-01T07:00:31;98701.78;;;37.89;25.64
69980;BME280;57318;56.232;43.944;2023-08-01T07:02:57;98702.84;;;38.98;23.33
69980;BME280;57318;56.232;43.944;2023-08-01T07:05:23;98711.75;;;39.77;22.00
69980;BME280;57318;56.232;43.944;2023-08-01T07:07:49;98705.94;;;39.61;22.30
69980;BME280;57318;56.232;43.944;2023-08-01T07:10:15;98707.25;;;40.23;21.64
69980;BME280;57318;56.232;43.944;2023-08-01T07:12:41;98713.34;;;40.80;20.69
69980;BME280;57318;56.232;43.944;2023-08-01T07:15:07;98708.34;;;41.53;20.46
69980;BME280;57318;56.232;43.944;2023-08-01T07:17:34;98705.44;;;42.23;19.71
69980;BME280;57318;56.232;43.944;2023-08-01T07:20:00;98712.72;;;42.97;18.58
69980;BME280;57318;56.232;43.944;2023-08-01T07:22:25;98706.28;;;43.08;17.91
69980;BME280;57318;56.232;43.944;2023-08-01T07:24:54;98714.78;;;43.28;17.45
69980;BME280;57318;56.232;43.944;2023-08-01T07:27:21;98713.25;;;42.86;17.52
69980;BME280;57318;56.232;43.944;2023-08-01T07:29:47;98713.56;;;42.69;17.73
69980;BME280;57318;56.232;43.944;2023-08-01T07:32:14;98710.47;;;43.31;17.65
69980;BME280;57318;56.232;43.944;2023-08-01T07:34:40;98698.41;;;43.42;16.75
69980;BME280;57318;56.232;43.944;2023-08-01T07:37:06;98704.63;;;43.84;16.84
69980;BME280;57318;56.232;43.944;2023-08-01T07:39:32;98709.38;;;44.35;15.86
69980;BME280;57318;56.232;43.944;2023-08-01T07:42:00;98708.56;;;44.93;15.44
69980;BME280;57318;56.232;43.944;2023-08-01T07:44:26;98716.44;;;45.49;15.00
69980;BME280;57318;56.232;43.944;2023-08-01T07:46:52;98703.56;;;44.08;15.71
69980;BME280;57318;56.232;43.944;2023-08-01T07:49:17;98704.50;;;43.00;16.83
69980;BME280;57318;56.232;43.944;2023-08-01T07:51:43;98710.53;;;43.02;16.36
69980;BME280;57318;56.232;43.944;2023-08-01T07:54:10;98692.66;;;42.50;17.31
69980;BME280;57318;56.232;43.944;2023-08-01T07:56:35;98707.09;;;42.81;17.31
69980;BME280;57318;56.232;43.944;2023-08-01T07:59:01;98703.94;;;43.11;17.00
69980;BME280;57318;56.232;43.944;2023-08-01T08:01:27;98703.81;;;42.91;16.58
69980;BME280;57318;56.232;43.944;2023-08-01T08:03:52;98702.41;;;42.04;17.26
69980;BME280;57318;56.232;43.944;2023-08-01T08:06:18;98703.09;;;42.25;18.18
69980;BME280;57318;56.232;43.944;2023-08-01T08:08:46;98695.97;;;40.62;18.99
69980;BME280;57318;56.232;43.944;2023-08-01T08:11:12;98678.28;;;39.17;20.61
69980;BME280;57318;56.232;43.944;2023-08-01T08:13:38;98698.63;;;39.86;20.09
69980;BME280;57318;56.232;43.944;2023-08-01T08:16:06;98701.81;;;40.69;19.83
69980;BME280;57318;56.232;43.944;2023-08-01T08:18:31;98704.97;;;40.47;19.56
69980;BME280;57318;56.232;43.944;2023-08-01T08:20:57;98697.59;;;39.23;20.75
69980;BME280;57318;56.232;43.944;2023-08-01T08:23:23;98689.50;;;37.32;22.61
69980;BME280;57318;56.232;43.944;2023-08-01T08:25:48;98699.69;;;38.12;22.12
69980;BME280;57318;56.232;43.944;2023-08-01T08:28:27;98698.25;;;37.66;22.58
69980;BME280;57318;56.232;43.944;2023-08-01T08:30:52;98697.50;;;36.43;23.31
69980;BME280;57318;56.232;43.944;2023-08-01T08:33:21;98686.31;;;35.42;24.39
69980;BME280;57318;56.232;43.944;2023-08-01T08:35:47;98674.16;;;34.21;26.44
69980;BME280;57318;56.232;43.944;2023-08-01T08:38:13;98681.22;;;33.89;27.29
69980;BME280;57318;56.232;43.944;2023-08-01T08:40:41;98687.00;;;34.68;26.20
69980;BME280;57318;56.232;43.944;2023-08-01T08:43:11;98681.13;;;34.56;25.91
69980;BME280;57318;56.232;43.944;2023-08-01T08:45:41;98684.88;;;35.45;25.06
69980;BME280;57318;56.232;43.944;2023-08-01T08:48:13;98682.53;;;34.53;26.19
69980;BME280;57318;56.232;43.944;2023-08-01T08:50:43;98678.13;;;33.71;26.80
69980;BME280;57318;56.232;43.944;2023-08-01T08:53:11;98686.72;;;35.77;24.70
69980;BME280;57318;56.232;43.944;2023-08-01T08:55:39;98686.59;;;37.86;22.56
69980;BME280;57318;56.232;43.944;2023-08-01T08:58:05;98701.41;;;39.86;20.33
69980;BME280;57318;56.232;43.944;2023-08-01T09:00:31;98692.06;;;38.96;21.82
69980;BME280;57318;56.232;43.944;2023-08-01T09:02:57;98694.19;;;38.30;22.09
69980;BME280;57318;56.232;43.944;2023-08-01T09:05:27;98694.25;;;39.77;20.80
69980;BME280;57318;56.232;43.944;2023-08-01T09:07:56;98697.00;;;39.56;20.59
69980;BME280;57318;56.232;43.944;2023-08-01T09:10:22;98692.31;;;40.28;19.07
69980;BME280;57318;56.232;43.944;2023-08-01T09:12:49;98692.72;;;38.85;20.59
69980;BME280;57318;56.232;43.944;2023-08-01T09:15:14;98688.66;;;39.85;19.82
69980;BME280;57318;56.232;43.944;2023-08-01T09:17:51;98695.03;;;40.37;19.15
69980;BME280;57318;56.232;43.944;2023-08-01T09:20:17;98686.47;;;39.23;19.76
69980;BME280;57318;56.232;43.944;2023-08-01T09:22:44;98685.59;;;37.73;21.33
69980;BME280;57318;56.232;43.944;2023-08-01T09:25:11;98688.22;;;36.25;23.21
69980;BME280;57318;56.232;43.944;2023-08-01T09:27:37;98677.00;;;35.05;24.48
69980;BME280;57318;56.232;43.944;2023-08-01T09:30:11;98673.31;;;33.82;26.36
69980;BME280;57318;56.232;43.944;2023-08-01T09:32:39;98676.16;;;32.94;28.04
69980;BME280;57318;56.232;43.944;2023-08-01T09:35:05;98675.28;;;32.25;29.10
69980;BME280;57318;56.232;43.944;2023-08-01T09:37:41;98676.84;;;31.81;30.00
69980;BME280;57318;56.232;43.944;2023-08-01T09:40:11;98671.44;;;31.60;31.01
69980;BME280;57318;56.232;43.944;2023-08-01T09:42:45;98671.28;;;31.91;30.64
69980;BME280;57318;56.232;43.944;2023-08-01T09:45:15;98675.00;;;32.26;30.26
69980;BME280;57318;56.232;43.944;2023-08-01T09:47:44;98673.94;;;32.17;30.49
69980;BME280;57318;56.232;43.944;2023-08-01T09:50:12;98672.91;;;32.02;30.50
69980;BME280;57318;56.232;43.944;2023-08-01T09:52:45;98673.81;;;31.82;31.19
69980;BME280;57318;56.232;43.944;2023-08-01T09:55:20;98670.34;;;31.56;31.38
69980;BME280;57318;56.232;43.944;2023-08-01T09:57:53;98672.66;;;33.42;28.72
69980;BME280;57318;56.232;43.944;2023-08-01T10:00:22;98677.25;;;34.38;27.34
69980;BME280;57318;56.232;43.944;2023-08-01T10:02:49;98672.06;;;34.37;27.78
69980;BME280;57318;56.232;43.944;2023-08-01T10:05:16;98677.34;;;34.85;26.73
69980;BME280;57318;56.232;43.944;2023-08-01T10:07:44;98676.13;;;34.39;26.75
69980;BME280;57318;56.232;43.944;2023-08-01T10:10:11;98672.44;;;33.87;27.31
69980;BME280;57318;56.232;43.944;2023-08-01T10:12:37;98664.25;;;33.28;27.83
69980;BME280;57318;56.232;43.944;2023-08-01T10:15:05;98669.81;;;32.59;28.78
69980;BME280;57318;56.232;43.944;2023-08-01T10:17:34;98669.22;;;32.23;29.52
69980;BME280;57318;56.232;43.944;2023-08-01T10:20:01;98667.81;;;35.10;25.72
69980;BME280;57318;56.232;43.944;2023-08-01T10:22:30;98669.69;;;36.12;24.23
69980;BME280;57318;56.232;43.944;2023-08-01T10:24:57;98673.00;;;37.27;22.92
69980;BME280;57318;56.232;43.944;2023-08-01T10:27:23;98671.31;;;36.72;23.30
69980;BME280;57318;56.232;43.944;2023-08-01T10:29:59;98674.03;;;36.41;24.01
69980;BME280;57318;56.232;43.944;2023-08-01T10:32:43;98679.63;;;38.06;22.01
69980;BME280;57318;56.232;43.944;2023-08-01T10:35:09;98683.47;;;40.05;19.85
69980;BME280;57318;56.232;43.944;2023-08-01T10:37:45;98682.91;;;39.91;19.79
69980;BME280;57318;56.232;43.944;2023-08-01T10:40:13;98687.44;;;40.46;19.61
69980;BME280;57318;56.232;43.944;2023-08-01T10:42:47;98675.94;;;41.48;18.86
69980;BME280;57318;56.232;43.944;2023-08-01T10:45:23;98680.59;;;43.03;17.19
69980;BME280;57318;56.232;43.944;2023-08-01T10:47:50;98685.88;;;44.20;16.58
69980;BME280;57318;56.232;43.944;2023-08-01T10:50:16;98686.31;;;45.46;15.51
69980;BME280;57318;56.232;43.944;2023-08-01T10:52:43;98692.06;;;46.34;14.59
69980;BME280;57318;56.232;43.944;2023-08-01T10:55:09;98687.19;;;46.95;13.86
69980;BME280;57318;56.232;43.944;2023-08-01T10:57:39;98686.31;;;45.46;14.22
69980;BME280;57318;56.232;43.944;2023-08-01T11:00:06;98674.75;;;43.56;15.90
69980;BME280;57318;56.232;43.944;2023-08-01T11:02:37;98665.13;;;41.34;17.55
69980;BME280;57318;56.232;43.944;2023-08-01T11:05:07;98664.94;;;39.02;19.47
69980;BME280;57318;56.232;43.944;2023-08-01T11:07:34;98655.75;;;37.30;21.00
69980;BME280;57318;56.232;43.944;2023-08-01T11:12:42;98670.53;;;39.79;19.23
69980;BME280;57318;56.232;43.944;2023-08-01T11:15:14;98673.00;;;41.69;17.77
69980;BME280;57318;56.232;43.944;2023-08-01T11:17:42;98668.00;;;42.81;16.13
69980;BME280;57318;56.232;43.944;2023-08-01T11:20:12;98666.63;;;43.67;16.10
69980;BME280;57318;56.232;43.944;2023-08-01T11:22:51;98665.78;;;44.18;14.97
69980;BME280;57318;56.232;43.944;2023-08-01T11:25:18;98677.06;;;44.99;15.20
69980;BME280;57318;56.232;43.944;2023-08-01T11:27:45;98676.06;;;45.81;14.22
69980;BME280;57318;56.232;43.944;2023-08-01T11:30:11;98670.69;;;45.22;14.26
69980;BME280;57318;56.232;43.944;2023-08-01T11:32:38;98671.00;;;45.90;13.80
69980;BME280;57318;56.232;43.944;2023-08-01T11:35:04;98661.84;;;45.43;13.98
69980;BME280;57318;56.232;43.944;2023-08-01T11:37:33;98664.44;;;45.55;14.02
69980;BME280;57318;56.232;43.944;2023-08-01T11:39:59;98662.44;;;45.83;13.67
69980;BME280;57318;56.232;43.944;2023-08-01T11:42:30;98664.66;;;45.70;13.23
69980;BME280;57318;56.232;43.944;2023-08-01T11:45:08;98657.09;;;45.74;13.28
69980;BME280;57318;56.232;43.944;2023-08-01T11:47:34;98653.78;;;45.18;13.51
69980;BME280;57318;56.232;43.944;2023-08-01T11:50:00;98660.41;;;45.80;12.47
69980;BME280;57318;56.232;43.944;2023-08-01T11:52:27;98652.66;;;45.73;12.81
69980;BME280;57318;56.232;43.944;2023-08-01T11:54:53;98658.06;;;45.58;13.13
69980;BME280;57318;56.232;43.944;2023-08-01T11:57:22;98658.59;;;45.68;12.79
69980;BME280;57318;56.232;43.944;2023-08-01T11:59:51;98648.94;;;45.65;12.69
69980;BME280;57318;56.232;43.944;2023-08-01T12:02:28;98639.69;;;45.38;12.71
69980;BME280;57318;56.232;43.944;2023-08-01T12:04:55;98655.03;;;45.44;12.90
69980;BME280;57318;56.232;43.944;2023-08-01T12:07:25;98651.69;;;45.62;12.74
69980;BME280;57318;56.232;43.944;2023-08-01T12:09:58;98649.44;;;45.71;12.75
69980;BME280;57318;56.232;43.944;2023-08-01T12:12:27;98641.69;;;43.77;14.07
69980;BME280;57318;56.232;43.944;2023-08-01T12:14:53;98632.69;;;41.66;15.53
69980;BME280;57318;56.232;43.944;2023-08-01T12:17:20;98633.03;;;39.85;17.45
69980;BME280;57318;56.232;43.944;2023-08-01T12:19:46;98628.28;;;38.18;18.81
69980;BME280;57318;56.232;43.944;2023-08-01T12:22:12;98624.41;;;36.67;20.32
69980;BME280;57318;56.232;43.944;2023-08-01T12:24:38;98627.16;;;35.57;22.20
69980;BME280;57318;56.232;43.944;2023-08-01T12:27:08;98627.19;;;35.44;22.72
69980;BME280;57318;56.232;43.944;2023-08-01T12:29:34;98630.72;;;36.81;21.77
69980;BME280;57318;56.232;43.944;2023-08-01T12:32:02;98628.03;;;37.70;20.95
69980;BME280;57318;56.232;43.944;2023-08-01T12:34:28;98630.97;;;36.71;21.59
69980;BME280;57318;56.232;43.944;2023-08-01T12:36:54;98627.25;;;35.66;22.63
69980;BME280;57318;56.232;43.944;2023-08-01T12:39:19;98632.28;;;35.50;23.03
69980;BME280;57318;56.232;43.944;2023-08-01T12:41:45;98631.47;;;36.14;22.87
69980;BME280;57318;56.232;43.944;2023-08-01T12:44:11;98625.00;;;37.41;21.45
69980;BME280;57318;56.232;43.944;2023-08-01T12:46:37;98621.06;;;38.43;20.46
69980;BME280;57318;56.232;43.944;2023-08-01T12:49:04;98627.16;;;39.10;19.62
69980;BME280;57318;56.232;43.944;2023-08-01T12:51:30;98623.47;;;39.36;19.33